Time;durP1;ratioP1;P1;durP2;ratioP2;P2;SDS_P1;SDS_P2;PMS_P1;PMS_P2;Temp;Humidity;BMP_temperature;BMP_pressure;BME280_temperature;BME280_humidity;BME280_pressure;Samples;Min_cycle;Max_cycle;Signal;HPM_P1;HPM_P2
2022/01/26 00:08:41;;;;;;;34.23;15.67;;;;;;;3.25;71.20;101583.53;5473136;32;37525;-74
2022/01/26 00:11:43;;;;;;;35.47;16.17;;;;;;;3.95;68.19;101577.19;5469758;32;36046;-77
2022/01/26 00:14:45;;;;;;;32.23;15.53;;;;;;;4.64;64.93;101583.66;5470079;32;34709;-74
2022/01/26 00:17:50;;;;;;;35.73;16.30;;;;;;;4.30;66.50;101582.59;5447620;32;44118;-76
2022/01/26 00:20:56;;;;;;;35.10;16.43;;;;;;;4.81;64.23;101579.37;5473406;32;35821;-76
2022/01/26 00:27:35;;;;;;;32.77;15.83;;;;;;;4.48;65.66;101581.84;5457156;32;43192;-74
2022/01/26 00:41:03;;;;;;;33.90;15.73;;;;;;;4.26;65.46;101573.94;5471913;32;46963;-76
2022/01/26 00:44:07;;;;;;;34.17;16.33;;;;;;;4.59;64.47;101572.34;5473060;32;34620;-75
2022/01/26 00:47:09;;;;;;;;;;;;;;;4.47;64.78;101569.69;5473821;32;34560;-75
2022/01/26 00:50:12;;;;;;;34.17;15.67;;;;;;;4.70;64.12;101570.69;5453765;32;33999;-76
2022/01/26 00:53:14;;;;;;;37.93;16.53;;;;;;;4.58;63.98;101576.69;5467786;32;35397;-76
2022/01/26 00:56:17;;;;;;;34.63;15.30;;;;;;;4.56;63.70;101574.94;5445651;32;42690;-77
2022/01/26 00:59:19;;;;;;;44.50;19.50;;;;;;;4.58;63.38;101578.44;5475155;32;36266;-76
2022/01/26 01:02:21;;;;;;;46.47;23.40;;;;;;;4.69;63.47;101581.94;5466898;32;35302;-75
2022/01/26 01:05:34;;;;;;;49.83;23.77;;;;;;;4.76;60.76;101583.69;5471856;32;35436;-75
2022/01/26 01:08:39;;;;;;;52.57;25.13;;;;;;;4.14;61.88;101588.59;5461098;32;34085;-73
2022/01/26 01:11:42;;;;;;;50.93;23.50;;;;;;;3.60;63.91;101592.50;5469549;32;34184;-76
2022/01/26 01:14:44;;;;;;;49.80;23.57;;;;;;;4.28;60.72;101569.59;5462408;32;35921;-73
2022/01/26 01:17:52;;;;;;;55.00;24.83;;;;;;;4.39;59.90;101584.41;5453224;32;44217;-74
2022/01/26 01:28:10;;;;;;;56.58;26.25;;;;;;;3.82;61.79;101580.56;5434882;32;36229;-75
2022/01/26 01:31:27;;;;;;;55.10;27.27;;;;;;;3.97;61.01;101583.28;5465755;32;35712;-76
2022/01/26 01:34:38;;;;;;;52.07;26.27;;;;;;;3.89;61.13;101575.41;5459945;32;34432;-75
2022/01/26 01:37:40;;;;;;;58.90;27.63;;;;;;;2.67;64.75;101587.22;5452280;32;34183;-76
2022/01/26 01:40:48;;;;;;;59.27;26.67;;;;;;;2.86;64.20;101570.13;5453192;32;35206;-75
2022/01/26 01:43:50;;;;;;;53.10;26.43;;;;;;;3.89;60.18;101566.75;5446599;32;44742;-72
2022/01/26 01:46:53;;;;;;;48.60;23.93;;;;;;;2.26;64.43;101582.37;5429509;32;34041;-78
2022/01/26 01:49:56;;;;;;;53.15;26.40;;;;;;;3.26;61.63;101587.00;5454631;32;35351;-72
2022/01/26 01:53:02;;;;;;;56.33;27.10;;;;;;;2.81;61.79;101582.19;5444218;32;36577;-74
2022/01/26 01:56:05;;;;;;;50.83;25.27;;;;;;;3.59;59.85;101583.84;5430097;32;34676;-75
2022/01/26 01:59:07;;;;;;;58.75;27.80;;;;;;;3.40;59.71;101574.12;5438372;32;35278;-73
2022/01/26 02:02:09;;;;;;;60.43;27.23;;;;;;;2.75;62.41;101584.69;5436765;32;35263;-75
2022/01/26 02:05:12;;;;;;;57.80;26.03;;;;;;;2.37;64.56;101580.75;5448952;32;35466;-76
2022/01/26 02:08:14;;;;;;;49.77;25.37;;;;;;;3.40;60.79;101568.94;5459786;32;34983;-75
2022/01/26 02:11:16;;;;;;;62.13;26.30;;;;;;;3.47;60.32;101571.59;5437643;32;36460;-74
2022/01/26 02:14:25;;;;;;;54.63;24.33;;;;;;;3.49;59.97;101577.72;5454848;32;35694;-73
2022/01/26 02:21:17;;;;;;;54.40;25.65;;;;;;;3.43;59.99;101562.06;5455455;32;35037;-77
2022/01/26 02:54:42;;;;;;;58.37;26.70;;;;;;;3.38;60.04;101568.94;5455725;32;36220;-74
2022/01/26 02:58:57;;;;;;;56.57;25.50;;;;;;;3.28;60.25;101561.03;5434017;32;37744;-74
2022/01/26 03:01:37;;;;;;;58.27;25.87;;;;;;;2.64;61.56;101559.50;5429134;32;35686;-77
2022/01/26 03:04:45;;;;;;;54.15;26.70;;;;;;;3.03;60.44;101570.28;5450614;32;33956;-76
2022/01/26 03:08:04;;;;;;;57.23;25.93;;;;;;;3.34;59.68;101566.28;5451037;32;45613;-75
2022/01/26 03:11:12;;;;;;;52.13;25.80;;;;;;;3.13;60.17;101565.22;5432282;32;35225;-76
2022/01/26 03:14:30;;;;;;;59.27;26.90;;;;;;;3.02;61.04;101560.75;5453828;32;34563;-76
2022/01/26 03:18:29;;;;;;;56.27;26.50;;;;;;;2.97;60.56;101560.75;5458273;32;34784;-76
2022/01/26 03:21:01;;;;;;;60.27;26.47;;;;;;;2.88;60.90;101556.28;5451429;32;35520;-73
2022/01/26 03:33:59;;;;;;;59.67;27.07;;;;;;;2.50;61.91;101550.66;5457587;32;46373;-72
2022/01/26 03:37:07;;;;;;;55.83;26.97;;;;;;;2.97;60.30;101551.22;5460381;32;35518;-75
2022/01/26 03:40:14;;;;;;;57.17;26.77;;;;;;;1.87;62.80;101554.12;5453338;32;35378;-72
2022/01/26 03:43:16;;;;;;;61.30;28.00;;;;;;;2.71;61.37;101553.53;5440482;32;42852;-72
2022/01/26 03:46:19;;;;;;;64.90;29.20;;;;;;;2.68;61.55;101553.47;5436583;32;36499;-72
2022/01/26 03:49:21;;;;;;;62.27;28.80;;;;;;;2.58;61.87;101554.25;5476851;32;35124;-75
2022/01/26 03:52:23;;;;;;;57.67;28.43;;;;;;;1.87;63.39;101559.31;5453306;32;34670;-76
2022/01/26 03:55:26;;;;;;;66.50;30.10;;;;;;;1.38;67.25;101545.56;5457460;32;35153;-74
2022/01/26 03:58:28;;;;;;;63.60;28.43;;;;;;;2.53;62.69;101555.03;5449855;32;34268;-73
2022/01/26 04:01:30;;;;;;;66.87;30.63;;;;;;;2.84;61.09;101561.47;5434631;32;36650;-77
2022/01/26 04:04:40;;;;;;;64.23;29.37;;;;;;;2.85;60.52;101564.06;5455959;32;34476;-75
2022/01/26 04:07:44;;;;;;;69.87;29.57;;;;;;;2.60;61.21;101562.91;5458484;32;35740;-75
2022/01/26 04:13:49;;;;;;;59.50;29.73;;;;;;;2.83;60.39;101559.69;5473755;32;34684;-75
2022/01/26 04:16:52;;;;;;;64.43;30.48;;;;;;;2.44;60.66;101556.63;5471790;32;35246;-75
2022/01/26 04:19:57;;;;;;;58.50;28.53;;;;;;;2.63;61.24;101557.75;5456090;32;36380;-75
2022/01/26 04:29:53;;;;;;;64.63;30.30;;;;;;;2.72;59.65;101550.06;5444874;32;45901;-72
2022/01/26 04:33:03;;;;;;;65.43;30.40;;;;;;;2.71;60.44;101544.88;5470885;32;36596;-72
2022/01/26 04:36:09;;;;;;;64.07;28.67;;;;;;;2.13;61.85;101550.19;5474697;32;35739;-76
2022/01/26 04:39:16;;;;;;;69.77;30.00;;;;;;;2.30;61.76;101539.16;5461600;32;35054;-74
2022/01/26 04:42:28;;;;;;;63.77;28.73;;;;;;;2.70;60.36;101551.78;5451271;32;43891;-73
2022/01/26 04:45:31;;;;;;;61.57;26.90;;;;;;;2.49;61.03;101543.72;5453686;32;33709;-72
2022/01/26 04:48:34;;;;;;;62.67;29.27;;;;;;;2.51;60.92;101534.22;5451489;32;35572;-75
2022/01/26 04:51:36;;;;;;;62.13;29.60;;;;;;;2.41;61.48;101541.03;5475314;32;35490;-73
2022/01/26 04:54:38;;;;;;;63.87;30.70;;;;;;;2.17;62.58;101544.19;5449311;32;35495;-74
2022/01/26 04:57:41;;;;;;;62.60;28.43;;;;;;;2.47;61.30;101540.25;5442383;32;36002;-72
2022/01/26 05:00:47;;;;;;;65.47;28.63;;;;;;;2.65;60.50;101539.59;5468023;32;44828;-73
2022/01/26 05:03:50;;;;;;;60.57;29.40;;;;;;;2.42;61.19;101535.00;5453917;32;35558;-73
2022/01/26 05:06:52;;;;;;;72.37;30.30;;;;;;;2.62;60.65;101534.38;5449615;32;35966;-73
2022/01/26 05:09:54;;;;;;;72.47;30.63;;;;;;;2.61;60.83;101537.81;5469096;32;33962;-75
2022/01/26 05:12:57;;;;;;;63.87;29.27;;;;;;;1.62;63.83;101545.97;5474554;32;35973;-74
2022/01/26 05:15:59;;;;;;;70.83;29.23;;;;;;;2.75;60.94;101533.66;5459721;32;34793;-76
2022/01/26 05:19:04;;;;;;;68.83;29.93;;;;;;;2.58;61.06;101528.28;5454346;32;35654;-74
2022/01/26 05:22:07;;;;;;;65.47;30.03;;;;;;;2.27;62.63;101533.94;5433476;32;36576;-72
2022/01/26 05:25:10;;;;;;;70.53;31.80;;;;;;;2.46;62.33;101540.25;5460468;32;35478;-73
2022/01/26 05:28:12;;;;;;;65.73;29.53;;;;;;;2.58;61.48;101523.09;5451184;32;35406;-74
2022/01/26 05:31:14;;;;;;;71.50;31.23;;;;;;;2.28;62.02;101533.09;5467740;32;33550;-75
2022/01/26 05:34:16;;;;;;;72.73;31.80;;;;;;;2.70;60.95;101533.62;5442892;32;44645;-77
2022/01/26 05:37:19;;;;;;;66.63;30.33;;;;;;;2.50;61.18;101539.41;5471746;32;34486;-77
2022/01/26 05:40:22;;;;;;;63.90;30.07;;;;;;;2.34;61.54;101543.53;5479107;32;35596;-76
2022/01/26 05:43:24;;;;;;;65.70;31.37;;;;;;;2.81;60.28;101540.62;5472086;32;36069;-76
2022/01/26 05:46:35;;;;;;;67.17;30.70;;;;;;;2.65;60.12;101537.00;5474902;32;34420;-77
2022/01/26 05:49:38;;;;;;;63.70;31.43;;;;;;;2.13;62.59;101542.41;5451568;32;36113;-73
2022/01/26 05:52:41;;;;;;;69.53;30.43;;;;;;;2.11;62.59;101543.22;5458806;32;35306;-76
2022/01/26 05:55:44;;;;;;;66.28;30.58;;;;;;;2.23;62.88;101548.59;5422098;32;37177;-76
2022/01/26 05:58:46;;;;;;;70.13;30.97;;;;;;;2.20;63.68;101542.50;5465691;32;45709;-73
2022/01/26 06:01:49;;;;;;;73.47;33.43;;;;;;;2.23;62.93;101545.13;5452834;32;36225;-73
2022/01/26 06:04:52;;;;;;;73.22;33.63;;;;;;;1.27;67.35;101549.69;5443987;32;36238;-73
2022/01/26 06:07:54;;;;;;;66.60;33.03;;;;;;;1.61;66.18;101552.00;5473963;32;35309;-75
2022/01/26 06:10:59;;;;;;;64.40;30.73;;;;;;;1.54;65.63;101552.72;5460283;32;36062;-77
2022/01/26 06:14:01;;;;;;;80.73;37.60;;;;;;;2.01;64.37;101554.34;5472408;32;35394;-77
2022/01/26 06:17:03;;;;;;;80.37;37.97;;;;;;;2.51;61.92;101548.94;5462315;32;36025;-75
2022/01/26 06:20:06;;;;;;;74.73;39.33;;;;;;;2.34;62.38;101547.00;5459242;32;35224;-73
2022/01/26 06:23:09;;;;;;;72.85;31.70;;;;;;;2.25;63.00;101567.62;5476776;32;35349;-74
2022/01/26 06:26:12;;;;;;;62.97;31.30;;;;;;;2.20;62.42;101540.78;5450900;32;36224;-75
2022/01/26 06:29:14;;;;;;;61.03;29.57;;;;;;;2.15;64.10;101551.06;5466836;32;35462;-73
2022/01/26 06:32:17;;;;;;;59.47;29.57;;;;;;;2.09;64.01;101553.59;5466158;32;43583;-75
2022/01/26 06:35:19;;;;;;;62.90;31.57;;;;;;;3.06;61.23;101552.16;5448815;32;34597;-74
2022/01/26 06:38:24;;;;;;;59.63;28.93;;;;;;;3.20;60.02;101548.84;5466600;32;36273;-78
2022/01/26 06:41:27;;;;;;;59.53;29.47;;;;;;;3.10;60.05;101551.34;5451941;32;35995;-75
2022/01/26 06:44:35;;;;;;;62.03;30.33;;;;;;;2.64;61.41;101558.59;5436513;32;35388;-71
2022/01/26 06:48:11;;;;;;;59.87;29.50;;;;;;;3.25;60.49;101549.75;5453595;32;36416;-68
2022/01/26 06:51:14;;;;;;;60.53;27.53;;;;;;;3.34;60.16;101554.16;5463068;32;34687;-76
2022/01/26 06:54:16;;;;;;;64.57;32.13;;;;;;;3.52;59.65;101549.13;5462163;32;42942;-69
2022/01/26 06:57:18;;;;;;;55.60;28.70;;;;;;;3.22;60.02;101559.22;5427369;32;34434;-76
2022/01/26 07:00:21;;;;;;;63.30;30.07;;;;;;;3.22;60.53;101552.34;5451676;32;35828;-68
2022/01/26 07:03:24;;;;;;;50.70;25.00;;;;;;;2.98;61.75;101565.06;5457394;32;35345;-71
2022/01/26 07:06:27;;;;;;;53.35;26.40;;;;;;;3.31;61.93;101561.06;5446190;32;34224;-69
2022/01/26 07:09:30;;;;;;;51.73;26.00;;;;;;;3.69;61.32;101554.47;5462020;32;34886;-73
2022/01/26 07:12:32;;;;;;;47.60;21.07;;;;;;;4.16;59.95;101553.91;5448406;32;36893;-75
2022/01/26 07:22:16;;;;;;;37.03;18.90;;;;;;;3.95;64.63;101545.97;5442427;32;45132;-71
2022/01/26 07:25:19;;;;;;;32.73;14.93;;;;;;;4.23;63.44;101541.78;5449529;32;34904;-78
2022/01/26 07:28:21;;;;;;;32.27;16.13;;;;;;;4.52;62.75;101532.41;5448949;32;38287;-67
2022/01/26 07:31:24;;;;;;;29.93;15.57;;;;;;;4.99;61.46;101530.81;5456916;32;35346;-71
2022/01/26 07:34:27;;;;;;;30.57;15.10;;;;;;;5.15;60.94;101529.94;5447758;32;34777;-75
2022/01/26 07:37:30;;;;;;;26.40;13.73;;;;;;;4.88;62.49;101536.84;5470964;32;34620;-68
2022/01/26 07:40:34;;;;;;;28.93;13.97;;;;;;;5.16;60.53;101526.50;5456715;32;34422;-69
2022/01/26 07:43:37;;;;;;;26.67;13.00;;;;;;;5.14;60.84;101539.50;5444857;32;34509;-80
2022/01/26 07:46:40;;;;;;;26.50;13.30;;;;;;;5.42;60.65;101534.34;5461886;32;35127;-74
2022/01/26 07:49:43;;;;;;;22.37;11.82;;;;;;;4.94;62.79;101536.00;5452916;32;34551;-79
2022/01/26 07:52:45;;;;;;;23.63;12.13;;;;;;;4.97;62.11;101538.63;5453183;32;34613;-67
2022/01/26 07:55:49;;;;;;;31.10;16.63;;;;;;;4.62;64.25;101538.50;5448787;32;45018;-73
2022/01/26 07:58:51;;;;;;;24.60;12.30;;;;;;;4.16;64.25;101543.50;5442134;32;34584;-77
2022/01/26 08:01:53;;;;;;;21.57;10.23;;;;;;;4.86;63.43;101540.31;5453404;32;34573;-68
2022/01/26 08:04:57;;;;;;;24.23;10.97;;;;;;;4.68;63.86;101546.34;5463141;32;35869;-72
2022/01/26 08:07:59;;;;;;;25.53;11.90;;;;;;;4.00;66.04;101520.88;5466286;32;36232;-73
2022/01/26 08:11:01;;;;;;;23.87;11.30;;;;;;;4.62;64.11;101543.72;5453346;32;35986;-68
2022/01/26 08:14:04;;;;;;;21.07;10.70;;;;;;;4.45;64.65;101546.25;5443326;32;34879;-73
2022/01/26 08:17:08;;;;;;;23.97;11.30;;;;;;;4.37;65.83;101544.47;5459263;32;35831;-70
2022/01/26 08:20:11;;;;;;;27.67;13.27;;;;;;;5.05;62.92;101539.50;5444474;32;36005;-85
2022/01/26 08:23:13;;;;;;;21.90;10.43;;;;;;;4.50;64.45;101533.25;5454756;32;38799;-68
2022/01/26 08:26:26;;;;;;;21.62;10.07;;;;;;;5.15;60.88;101529.94;5453087;32;44480;-65
2022/01/26 08:29:33;;;;;;;23.27;11.13;;;;;;;5.24;61.16;101527.38;5466930;32;36214;-76
2022/01/26 08:32:35;;;;;;;22.97;11.10;;;;;;;3.99;66.02;101534.72;5470544;32;35106;-82
2022/01/26 08:35:38;;;;;;;22.80;11.30;;;;;;;4.72;63.84;101537.69;5471899;32;34378;-73
2022/01/26 08:38:40;;;;;;;21.83;10.70;;;;;;;4.34;65.03;101541.00;5424249;32;34507;-73
2022/01/26 08:41:43;;;;;;;20.63;9.97;;;;;;;4.71;63.60;101542.91;5468936;32;33780;-67
2022/01/26 08:44:45;;;;;;;23.45;10.93;;;;;;;3.67;65.89;101552.69;5441233;32;34614;-71
2022/01/26 08:47:49;;;;;;;22.30;11.43;;;;;;;4.68;64.09;101545.47;5453382;32;44481;-71
2022/01/26 08:50:52;;;;;;;25.77;11.75;;;;;;;4.66;63.68;101544.59;5461971;32;34500;-63
2022/01/26 08:53:54;;;;;;;21.37;11.17;;;;;;;4.59;62.88;101541.97;5450340;32;35478;-72
2022/01/26 08:56:56;;;;;;;22.57;10.97;;;;;;;4.85;62.08;101541.19;5441250;32;34724;-75
2022/01/26 09:00:00;;;;;;;18.80;9.37;;;;;;;4.99;61.61;101541.22;5449863;32;34609;-62
2022/01/26 09:03:03;;;;;;;;;;;;;;;4.30;63.35;101552.25;5463257;32;35697;-70
2022/01/26 09:06:07;;;;;;;23.97;11.57;;;;;;;4.38;63.66;101554.00;5448675;32;34780;-75
2022/01/26 09:09:14;;;;;;;21.03;10.10;;;;;;;3.73;66.98;101556.22;5458473;32;35164;-65
2022/01/26 09:12:19;;;;;;;22.80;10.90;;;;;;;4.31;63.63;101558.31;5456673;32;44245;-65
2022/01/26 09:15:27;;;;;;;20.70;10.13;;;;;;;5.46;59.63;101541.28;5449880;32;34563;-73
2022/01/26 09:18:44;;;;;;;21.70;10.10;;;;;;;4.56;63.47;101554.09;5467649;32;34531;-79
2022/01/26 09:21:47;;;;;;;21.10;11.13;;;;;;;4.10;64.40;101542.59;5447262;32;44356;-77
2022/01/26 09:24:50;;;;;;;22.03;10.37;;;;;;;5.61;59.72;101543.03;5460369;32;34583;-74
2022/01/26 09:27:52;;;;;;;25.93;13.03;;;;;;;5.10;60.95;101555.16;5469917;32;34824;-78
2022/01/26 09:30:54;;;;;;;20.53;10.50;;;;;;;5.83;59.06;101546.47;5458205;32;34577;-75
2022/01/26 09:33:57;;;;;;;21.20;10.80;;;;;;;5.17;60.69;101543.88;5447805;32;34518;-75
2022/01/26 09:36:59;;;;;;;27.83;10.40;;;;;;;5.91;58.48;101535.19;5463702;32;35565;-73
2022/01/26 09:40:03;;;;;;;23.17;11.43;;;;;;;6.24;57.77;101539.44;5449458;32;35749;-81
2022/01/26 09:43:05;;;;;;;22.45;10.32;;;;;;;5.65;59.55;101534.31;5468430;32;35945;-75
2022/01/26 09:46:11;;;;;;;23.17;11.20;;;;;;;5.39;59.56;101532.56;5445283;32;34468;-67
2022/01/26 09:49:17;;;;;;;24.33;10.23;;;;;;;5.79;58.90;101539.50;5448008;32;33491;-68
2022/01/26 09:52:26;;;;;;;24.70;10.10;;;;;;;5.37;59.46;101531.72;5448376;32;44196;-70
2022/01/26 09:55:30;;;;;;;25.23;10.37;;;;;;;5.81;58.00;101523.00;5432149;32;35994;-64
2022/01/26 09:58:34;;;;;;;23.93;11.00;;;;;;;5.67;58.93;101520.41;5460390;32;34625;-69
2022/01/26 10:01:54;;;;;;;35.38;11.52;;;;;;;5.96;58.02;101530.84;5440880;32;34553;-80
2022/01/26 10:05:01;;;;;;;33.60;12.03;;;;;;;5.87;58.42;101515.16;5465105;32;34591;-72
2022/01/26 10:08:14;;;;;;;27.27;11.60;;;;;;;5.35;59.36;101530.00;5446345;32;34317;-78
2022/01/26 10:17:45;;;;;;;26.50;10.40;;;;;;;5.61;59.60;101516.94;5440864;32;34697;-66
2022/01/26 10:20:47;;;;;;;;;;;;;;;5.10;59.67;101523.88;5451097;32;44101;-70
2022/01/26 10:23:54;;;;;;;23.43;11.53;;;;;;;5.25;60.57;101516.06;5464481;32;33793;-62
2022/01/26 10:26:58;;;;;;;30.77;11.27;;;;;;;5.23;60.08;101509.13;5461648;32;35222;-66
2022/01/26 10:30:02;;;;;;;;;;;;;;;6.01;58.23;101506.47;5466266;32;34464;-69
2022/01/26 10:33:11;;;;;;;20.90;10.05;;;;;;;6.33;56.26;101498.53;5450644;32;34601;-71
2022/01/26 10:36:15;;;;;;;20.07;9.43;;;;;;;6.11;56.00;101495.13;5450137;32;34716;-71
2022/01/26 10:39:26;;;;;;;32.43;11.20;;;;;;;5.61;58.96;101494.34;5441467;32;42968;-67
2022/01/26 10:42:28;;;;;;;25.23;9.73;;;;;;;6.40;56.68;101490.66;5466689;32;36447;-68
2022/01/26 10:46:02;;;;;;;28.87;10.53;;;;;;;6.95;55.06;101482.50;5448411;32;34423;-67
2022/01/26 10:52:55;;;;;;;25.77;9.83;;;;;;;5.63;58.46;101482.16;5475047;32;35422;-65
2022/01/26 10:55:48;;;;;;;26.90;9.87;;;;;;;6.75;55.49;101479.16;5429809;32;36246;-66
2022/01/26 10:58:50;;;;;;;25.67;9.33;;;;;;;6.27;56.59;101475.94;5453551;32;34406;-70
2022/01/26 11:01:53;;;;;;;19.57;9.13;;;;;;;6.10;56.27;101475.13;5465406;32;36312;-74
2022/01/26 11:04:58;;;;;;;25.07;10.07;;;;;;;6.75;54.55;101464.34;5440333;32;36829;-70
2022/01/26 11:08:02;;;;;;;17.98;8.90;;;;;;;6.13;56.59;101472.50;5469917;32;35162;-71
2022/01/26 11:11:05;;;;;;;20.95;8.20;;;;;;;5.96;56.46;101469.94;5460884;32;36476;-69
2022/01/26 11:14:15;;;;;;;21.23;9.40;;;;;;;6.21;55.18;101447.25;5446561;32;34857;-69
2022/01/26 11:17:34;;;;;;;18.17;8.60;;;;;;;5.70;57.49;101478.66;5449967;32;46660;-69
2022/01/26 11:20:48;;;;;;;16.30;8.23;;;;;;;5.41;57.78;101470.03;5454734;32;34480;-69
2022/01/26 11:23:52;;;;;;;18.62;8.35;;;;;;;5.33;58.35;101469.12;5456964;32;44863;-69
2022/01/26 11:27:05;;;;;;;23.53;8.23;;;;;;;5.68;57.84;101483.03;5461762;32;36470;-68
2022/01/26 11:30:31;;;;;;;16.43;8.27;;;;;;;6.24;56.58;101471.56;5444914;32;34420;-63
2022/01/26 11:33:35;;;;;;;19.52;8.70;;;;;;;5.93;56.35;101476.06;5451140;32;34637;-67
2022/01/26 11:36:42;;;;;;;23.70;9.47;;;;;;;6.90;54.77;101457.31;5466218;32;36122;-66
2022/01/26 11:46:52;;;;;;;17.07;8.73;;;;;;;9.65;46.61;101444.22;5460416;32;35971;-63
2022/01/26 11:50:14;;;;;;;27.30;9.33;;;;;;;9.66;46.14;101442.44;5469341;32;45346;-64
2022/01/26 11:53:24;;;;;;;25.87;8.17;;;;;;;9.22;46.96;101442.38;5464559;32;43539;-75
2022/01/26 11:56:27;;;;;;;25.40;8.70;;;;;;;8.03;49.43;101449.25;5442102;32;33805;-66
2022/01/26 11:59:32;;;;;;;21.47;9.60;;;;;;;6.98;52.31;101458.97;5465587;32;34698;-76
2022/01/26 12:02:54;;;;;;;21.73;8.37;;;;;;;7.09;52.28;101456.28;5466746;32;34572;-67
2022/01/26 12:05:59;;;;;;;19.33;7.93;;;;;;;7.53;51.23;101436.72;5454774;32;36147;-67
2022/01/26 12:09:04;;;;;;;;;;;;;;;6.76;53.93;101445.22;5449910;32;34361;-73
2022/01/26 12:12:16;;;;;;;19.00;8.40;;;;;;;7.32;51.27;101415.09;5445927;32;34682;-68
2022/01/26 12:15:19;;;;;;;21.00;7.57;;;;;;;6.99;52.70;101415.41;5445651;32;46580;-74
2022/01/26 12:18:40;;;;;;;17.00;7.40;;;;;;;6.21;55.10;101434.19;5454330;32;36377;-66
2022/01/26 12:35:20;;;;;;;15.27;7.30;;;;;;;6.43;54.75;101412.28;5460408;32;34756;-67
2022/01/26 12:38:49;;;;;;;17.23;7.33;;;;;;;7.07;53.30;101405.75;5460455;32;44353;-70
2022/01/26 12:41:54;;;;;;;24.97;8.60;;;;;;;7.02;53.50;101404.94;5467048;32;46050;-65
2022/01/26 12:45:03;;;;;;;15.43;7.13;;;;;;;6.98;53.27;101388.41;5463917;32;34505;-70
2022/01/26 12:48:10;;;;;;;17.77;7.63;;;;;;;7.29;52.35;101381.16;5446005;32;179296;-65
2022/01/26 12:51:12;;;;;;;17.23;6.87;;;;;;;6.04;55.64;101399.44;5463558;32;36040;-71
2022/01/26 12:54:17;;;;;;;16.70;6.82;;;;;;;6.99;53.08;101391.88;5455139;32;34552;-66
2022/01/26 12:57:19;;;;;;;17.77;7.50;;;;;;;7.20;52.50;101389.06;5412715;32;44500;-73
2022/01/26 13:00:23;;;;;;;16.43;7.43;;;;;;;7.15;51.49;101397.84;5447248;32;35933;-73
2022/01/26 13:03:37;;;;;;;17.67;7.30;;;;;;;6.95;52.29;101401.47;5439378;32;32642;-64
2022/01/26 13:06:54;;;;;;;16.67;7.17;;;;;;;7.79;50.25;101400.69;5446658;32;34427;-70
2022/01/26 13:09:58;;;;;;;15.47;7.50;;;;;;;6.18;54.42;101408.06;5469362;32;35562;-74
2022/01/26 13:13:17;;;;;;;17.37;7.43;;;;;;;6.94;53.23;101401.50;5459628;32;35519;-67
2022/01/26 13:16:24;;;;;;;16.20;6.97;;;;;;;7.70;50.98;101403.41;5447023;32;44546;-75
2022/01/26 13:19:38;;;;;;;17.23;6.93;;;;;;;8.15;49.78;101396.72;5463894;32;34396;-62
2022/01/26 13:32:42;;;;;;;19.00;8.07;;;;;;;7.02;52.84;101387.50;5445184;32;44273;-66
2022/01/26 13:39:15;;;;;;;27.70;8.83;;;;;;;8.08;49.30;101387.22;5458819;32;34657;-72
2022/01/26 14:01:16;;;;;;;19.80;7.73;;;;;;;7.50;49.89;101402.75;5464329;32;36037;-61
2022/01/26 14:04:19;;;;;;;15.03;6.80;;;;;;;7.20;51.14;101398.66;5461230;32;44462;-62
2022/01/26 14:07:21;;;;;;;19.60;7.87;;;;;;;7.92;49.88;101396.19;5461136;32;35789;-62
2022/01/26 14:10:24;;;;;;;17.67;7.90;;;;;;;8.53;47.19;101394.50;5452901;32;33338;-61
2022/01/26 14:13:27;;;;;;;19.90;7.67;;;;;;;9.38;46.28;101387.00;5453293;32;36472;-62
2022/01/26 14:16:36;;;;;;;18.25;8.10;;;;;;;9.59;44.94;101391.81;5464622;32;34627;-69
2022/01/26 14:19:56;;;;;;;14.33;7.40;;;;;;;9.32;44.98;101392.34;5467685;32;35611;-63
2022/01/26 14:26:24;;;;;;;15.33;7.13;;;;;;;8.37;47.48;101384.28;5444461;32;46405;-61
2022/01/26 14:33:00;;;;;;;17.43;7.47;;;;;;;6.53;52.67;101394.84;5461777;32;36113;-70
2022/01/26 15:35:53;;;;;;;19.77;8.67;;;;;;;5.13;58.13;101428.31;5461844;32;34830;-64
2022/01/26 15:42:32;;;;;;;17.60;8.27;;;;;;;5.38;57.17;101428.28;5470430;32;44141;-75
2022/01/26 16:38:53;;;;;;;20.10;9.20;;;;;;;5.42;57.75;101446.56;5471487;32;34526;-62
2022/01/26 17:11:12;;;;;;;24.43;10.93;;;;;;;4.86;60.77;101450.00;5468484;32;43759;-69
2022/01/26 17:12:40;;;;;;;25.20;10.97;;;;;;;4.78;60.41;101446.53;5451951;32;35564;-61
2022/01/26 18:52:09;;;;;;;27.57;11.60;;;;;;;3.33;65.90;101425.09;5465903;32;35942;-60
2022/01/26 18:55:14;;;;;;;27.67;11.50;;;;;;;3.49;65.74;101418.28;5451229;32;36193;-60
2022/01/26 18:58:17;;;;;;;24.13;11.37;;;;;;;3.01;67.13;101414.44;5463572;32;44849;-69
2022/01/26 19:01:19;;;;;;;25.53;11.87;;;;;;;3.25;66.24;101425.03;5452837;32;44727;-66
